EPM weather

Eastport Municipal Airport
Eastport, Maine, United States

Public forecast

Using degrees Fahrenheit for public forecast. Weather courtesy of forecast.io.

Closest aviation weather report (METAR) to Eastport Municipal Airport

Closest report is Saint John Airport, 53.4 nm (99.0 km) ENE. Retrieved 2019/10/17 04:00 UTC (3 minutes ago):

CYSJ 170400Z 12007KT 15SM OVC230 08/04 A2988 RMK CI8 SLP124

Closest aviation forecast (TAF) to Eastport Municipal Airport

Closest forecast is Saint John Airport, 53.4 nm (99.0 km) ENE. Retrieved 2019-10-17 00:39 UTC (3 hours ago):

TAF TAF CYSJ 162338Z 1700/1712 VRB03KT P6SM OVC240 BECMG 1700/1702 10010KT FM170700 11012G22KT P6SM BKN015 OVC200 BECMG 1707/1709 10015G25KT FM171100 09020G30KT 6SM -RA BR SCT006 OVC010 RMK NXT FCST BY 170600Z